This is the latest recevied weather packets stored in our database for station/object AD5L. If no packets are shown the sender has not sent any weather packets the latest 1 day(s).
| Time | Temp. | Humidity | Pressure | Rain* | Wind** | Luminosity | Snow |
|---|---|---|---|---|---|---|---|
| 1778036620 | 25.56° C | 86% | 1007.6 hPa | 0 mm | - | - | - |
| 1778036010 | 25.56° C | 86% | 1007.5 hPa | 0 mm | - | - | - |
| 1778035420 | 25.56° C | 86% | 1007.5 hPa | 0 mm | - | - | - |
| 1778034811 | 26.11° C | 85% | 1007.3 hPa | 0 mm | - | - | - |
| 1778034202 | 26.11° C | 85% | 1007 hPa | 0 mm | - | - | - |
| 1778031810 | 26.67° C | 83% | 1006.6 hPa | 0 mm | - | - | - |
| 1778031219 | 26.67° C | 82% | 1006.5 hPa | 0 mm | - | - | - |
| 1778030626 | 26.67° C | 81% | 1006.4 hPa | 0 mm | - | - | - |
| 1778030005 | 27.22° C | 80% | 1006.3 hPa | 0 mm | - | - | - |
| 1778027605 | 28.33° C | 76% | 1006.2 hPa | 0 mm | - | - | - |
| 1778027016 | 28.89° C | 75% | 1006.3 hPa | 0 mm | - | - | - |
| 1778026407 | 28.33° C | 76% | 1006.3 hPa | 0 mm | - | - | - |
| 1778022811 | 29.44° C | 73% | 1006 hPa | 0 mm | - | - | - |
| 1778021018 | 29.44° C | 73% | 1005.7 hPa | 0 mm | - | - | - |
| 1778020408 | 29.44° C | 73% | 1005.9 hPa | 0 mm | - | - | - |
| 1778018618 | 30° C | 71% | 1005.8 hPa | 0 mm | - | - | - |
| 1778018028 | 30° C | 71% | 1005.8 hPa | 0 mm | - | - | - |
| 1778016212 | 30.56° C | 70% | 1006.2 hPa | 0 mm | - | - | - |
| 1778013811 | 30° C | 72% | 1006.7 hPa | 0 mm | - | - | - |
| 1778010216 | 29.44° C | 70% | 1007.4 hPa | 0 mm | - | - | - |
| 1778006621 | 28.89° C | 72% | 1007.9 hPa | 0 mm | - | - | - |
* Rain latest hour (hover to see other rain measurements)
** Current wind speed in m/s (hover to see current wind gust speed)